createdAt,value
2017-09-23T00:00:06.512Z,0
2017-09-23T00:00:46.947Z,0
2017-09-23T00:01:27.365Z,0
2017-09-23T00:02:07.800Z,0
2017-09-23T00:02:48.230Z,0
2017-09-23T00:03:28.679Z,0
2017-09-23T00:04:09.132Z,0
2017-09-23T00:04:49.603Z,0
2017-09-23T00:05:30.053Z,0
2017-09-23T00:06:10.555Z,0
2017-09-23T00:06:50.966Z,0
2017-09-23T00:07:31.382Z,0
2017-09-23T00:08:11.836Z,0
2017-09-23T00:08:52.285Z,0
2017-09-23T00:09:32.747Z,0
2017-09-23T00:10:13.217Z,0
2017-09-23T00:10:54.537Z,0
2017-09-23T00:11:35.002Z,0
2017-09-23T00:12:15.446Z,0
2017-09-23T00:12:55.896Z,0
2017-09-23T00:13:36.938Z,0
2017-09-23T00:14:17.384Z,0
2017-09-23T00:14:57.883Z,0
2017-09-23T00:15:38.359Z,0
2017-09-23T00:16:18.924Z,0
2017-09-23T00:16:59.379Z,0
2017-09-23T00:17:39.830Z,0
2017-09-23T00:18:20.249Z,0
2017-09-23T00:19:00.700Z,0
2017-09-23T00:19:42.033Z,0
2017-09-23T00:20:22.467Z,0
2017-09-23T00:21:03.692Z,0
2017-09-23T00:21:44.137Z,0
2017-09-23T00:22:24.577Z,0
2017-09-23T00:23:05.055Z,0
2017-09-23T00:23:45.498Z,0
2017-09-23T00:24:25.954Z,0
2017-09-23T00:25:06.389Z,0
2017-09-23T00:25:46.832Z,0
2017-09-23T00:26:27.270Z,0
2017-09-23T00:27:07.705Z,0
2017-09-23T00:27:48.190Z,0
2017-09-23T00:28:28.593Z,0
2017-09-23T00:29:09.013Z,0
2017-09-23T00:29:49.504Z,0
2017-09-23T00:30:29.957Z,0
2017-09-23T00:31:10.430Z,0
2017-09-23T00:31:50.893Z,0
2017-09-23T00:32:31.366Z,0
2017-09-23T00:33:11.796Z,0
2017-09-23T00:33:52.277Z,0
2017-09-23T00:34:32.702Z,0
2017-09-23T00:35:13.307Z,0
2017-09-23T00:35:53.655Z,0
2017-09-23T00:36:34.059Z,0
2017-09-23T00:37:15.501Z,0
2017-09-23T00:37:55.947Z,0
2017-09-23T00:38:36.358Z,0
2017-09-23T00:39:16.788Z,0
2017-09-23T00:39:57.246Z,0
2017-09-23T00:40:37.668Z,0
2017-09-23T00:41:18.124Z,0
2017-09-23T00:41:58.562Z,0
2017-09-23T00:42:38.986Z,0
2017-09-23T00:43:19.428Z,0
2017-09-23T00:43:59.904Z,0
2017-09-23T00:44:40.482Z,0
2017-09-23T00:45:20.811Z,0
2017-09-23T00:46:01.259Z,0
2017-09-23T00:46:41.722Z,0
2017-09-23T00:47:22.158Z,0
2017-09-23T00:48:02.602Z,0
2017-09-23T00:48:43.072Z,0
2017-09-23T00:49:23.523Z,0
2017-09-23T00:50:03.971Z,0
2017-09-23T00:50:44.399Z,0
2017-09-23T00:51:24.849Z,0
2017-09-23T00:52:05.300Z,0
2017-09-23T00:52:45.746Z,0
2017-09-23T00:53:26.201Z,0
2017-09-23T00:54:06.655Z,0
2017-09-23T00:54:47.120Z,0
2017-09-23T00:55:27.550Z,0
2017-09-23T00:56:08.008Z,0
2017-09-23T00:56:48.478Z,0
2017-09-23T00:57:28.910Z,0
2017-09-23T00:58:09.336Z,0
2017-09-23T00:58:49.832Z,0
2017-09-23T00:59:30.291Z,0
2017-09-23T01:00:10.750Z,0
2017-09-23T01:00:51.182Z,0
2017-09-23T01:01:31.664Z,0
2017-09-23T01:02:12.119Z,0
2017-09-23T01:02:52.529Z,0
2017-09-23T01:03:32.987Z,0
2017-09-23T01:04:13.427Z,0
2017-09-23T01:04:53.877Z,0
2017-09-23T01:05:34.411Z,0
2017-09-23T01:06:14.894Z,0
2017-09-23T01:06:55.340Z,0
2017-09-23T01:07:35.833Z,0
2017-09-23T01:08:16.304Z,0
2017-09-23T01:08:56.800Z,0
2017-09-23T01:11:14.656Z,0
2017-09-23T01:11:55.117Z,0
2017-09-23T01:12:35.608Z,0
2017-09-23T01:13:16.073Z,0
2017-09-23T01:13:56.502Z,0
2017-09-23T01:14:36.981Z,0
2017-09-23T01:15:17.410Z,0
2017-09-23T01:15:57.877Z,0
2017-09-23T01:16:38.290Z,0
2017-09-23T01:17:19.310Z,0
2017-09-23T01:17:59.764Z,0
2017-09-23T01:18:40.220Z,0
2017-09-23T01:19:20.671Z,0
2017-09-23T01:20:01.079Z,0
2017-09-23T01:20:41.525Z,0
2017-09-23T01:21:21.988Z,0
2017-09-23T01:22:02.438Z,0
2017-09-23T01:22:42.878Z,0
2017-09-23T01:25:00.725Z,0
2017-09-23T01:26:58.342Z,0
2017-09-23T01:27:38.815Z,0
2017-09-23T01:28:19.329Z,0
2017-09-23T01:30:16.964Z,0
2017-09-23T01:30:58.342Z,0
2017-09-23T01:31:38.824Z,0
2017-09-23T01:32:19.456Z,0
2017-09-23T01:32:59.889Z,0
2017-09-23T01:33:40.342Z,0
2017-09-23T01:34:20.782Z,0
2017-09-23T01:35:01.251Z,0
2017-09-23T01:35:41.703Z,0
2017-09-23T01:36:22.131Z,0
2017-09-23T01:37:02.583Z,0
2017-09-23T01:39:15.322Z,0
2017-09-23T01:39:55.792Z,0
2017-09-23T01:40:36.282Z,0
2017-09-23T01:41:16.699Z,0
2017-09-23T01:43:45.130Z,0
2017-09-23T01:44:25.634Z,0
2017-09-23T01:45:06.068Z,0
2017-09-23T01:45:46.530Z,0
2017-09-23T01:46:26.993Z,0
2017-09-23T01:49:00.027Z,0
2017-09-23T01:49:40.474Z,0
2017-09-23T01:51:38.070Z,0
2017-09-23T01:52:18.555Z,0
2017-09-23T01:52:59.047Z,0
2017-09-23T01:53:39.521Z,0
2017-09-23T01:54:19.997Z,0
2017-09-23T01:55:00.454Z,0
2017-09-23T01:55:40.919Z,0
2017-09-23T01:56:21.359Z,0
2017-09-23T01:57:01.819Z,0
2017-09-23T01:57:42.274Z,0
2017-09-23T02:00:15.438Z,0
2017-09-23T02:00:55.891Z,0
2017-09-23T02:01:36.947Z,0
2017-09-23T02:02:17.396Z,0
2017-09-23T02:02:57.841Z,0
2017-09-23T02:03:38.251Z,0
2017-09-23T02:04:18.710Z,0
2017-09-23T02:04:59.175Z,0
2017-09-23T02:05:39.579Z,0
2017-09-23T02:06:20.039Z,0
2017-09-23T02:07:00.471Z,0
2017-09-23T02:07:40.929Z,0
2017-09-23T02:08:21.406Z,0
2017-09-23T02:09:01.835Z,0
2017-09-23T02:09:42.294Z,0
2017-09-23T02:10:22.717Z,0
2017-09-23T02:11:03.202Z,0
2017-09-23T02:11:43.593Z,0
2017-09-23T02:12:24.047Z,0
2017-09-23T02:13:04.483Z,0
2017-09-23T02:13:44.923Z,0
2017-09-23T02:14:25.366Z,0
2017-09-23T02:15:05.808Z,0
2017-09-23T02:15:46.238Z,0
2017-09-23T02:16:26.697Z,0
2017-09-23T02:17:07.162Z,0
2017-09-23T02:17:47.652Z,0
2017-09-23T02:18:28.118Z,0
2017-09-23T02:19:08.539Z,0
2017-09-23T02:19:48.960Z,0
2017-09-23T02:20:29.399Z,0
2017-09-23T02:21:09.838Z,0
2017-09-23T02:21:50.299Z,0
2017-09-23T02:22:30.746Z,0
2017-09-23T02:23:11.179Z,0
2017-09-23T02:23:51.641Z,0
2017-09-23T02:24:32.123Z,0
2017-09-23T02:25:12.580Z,0
2017-09-23T02:25:53.065Z,0
2017-09-23T02:26:33.527Z,0
2017-09-23T02:27:13.956Z,0
2017-09-23T02:27:54.429Z,0
2017-09-23T02:28:34.852Z,0
2017-09-23T02:29:15.277Z,0
2017-09-23T02:29:55.787Z,0
2017-09-23T02:30:36.229Z,0
2017-09-23T02:31:16.729Z,0
2017-09-23T02:33:34.593Z,0
2017-09-23T02:35:32.210Z,0
2017-09-23T02:36:12.687Z,0
2017-09-23T02:36:53.201Z,0
2017-09-23T02:37:33.786Z,0
2017-09-23T02:38:14.200Z,0
2017-09-23T02:38:54.648Z,0
2017-09-23T02:39:35.083Z,0
2017-09-23T02:40:15.555Z,0
2017-09-23T02:40:56.019Z,0
2017-09-23T02:41:36.471Z,0
2017-09-23T02:42:16.961Z,0
2017-09-23T02:42:57.546Z,0
2017-09-23T02:43:37.985Z,0
2017-09-23T02:44:18.428Z,0
2017-09-23T02:44:58.868Z,0
2017-09-23T02:45:39.321Z,0
2017-09-23T02:46:19.780Z,0
2017-09-23T02:47:00.268Z,0
2017-09-23T02:47:40.732Z,0
2017-09-23T02:48:21.211Z,0
2017-09-23T02:49:01.642Z,0
2017-09-23T02:49:42.095Z,0
2017-09-23T02:50:22.554Z,0
2017-09-23T02:51:03.038Z,0
2017-09-23T02:51:43.479Z,0
2017-09-23T02:52:23.922Z,0
2017-09-23T02:53:04.358Z,0
2017-09-23T02:53:44.783Z,0
2017-09-23T02:56:17.896Z,0
2017-09-23T02:56:58.392Z,0
2017-09-23T02:57:38.853Z,0
2017-09-23T02:58:19.844Z,0
2017-09-23T02:59:00.300Z,0
2017-09-23T02:59:40.746Z,0
2017-09-23T03:00:21.231Z,0
2017-09-23T03:01:01.611Z,0
2017-09-23T03:01:42.053Z,0
2017-09-23T03:02:22.550Z,0
2017-09-23T03:03:02.918Z,0
2017-09-23T03:03:43.396Z,0
2017-09-23T03:04:23.894Z,0
2017-09-23T03:05:04.322Z,0
2017-09-23T03:05:44.786Z,0
2017-09-23T03:06:25.219Z,0
2017-09-23T03:07:05.681Z,0
2017-09-23T03:07:46.163Z,0
2017-09-23T03:08:26.690Z,0
2017-09-23T03:09:07.139Z,0
2017-09-23T03:09:47.581Z,0
2017-09-23T03:10:28.039Z,0
2017-09-23T03:11:08.463Z,0
2017-09-23T03:11:48.942Z,0
2017-09-23T03:12:29.402Z,0
2017-09-23T03:13:09.849Z,0
2017-09-23T03:13:50.295Z,0
2017-09-23T03:14:30.718Z,0
2017-09-23T03:15:11.243Z,0
2017-09-23T03:15:51.649Z,0
2017-09-23T03:16:32.088Z,0
2017-09-23T03:17:12.564Z,0
2017-09-23T03:17:53.013Z,0
2017-09-23T03:18:33.471Z,0
2017-09-23T03:19:13.916Z,0
2017-09-23T03:21:26.603Z,0
2017-09-23T03:22:07.112Z,0
2017-09-23T03:22:47.499Z,0
2017-09-23T03:25:05.286Z,0
2017-09-23T03:25:45.772Z,0
2017-09-23T03:26:26.269Z,0
2017-09-23T03:27:06.733Z,0
2017-09-23T03:27:47.198Z,0
2017-09-23T03:28:27.663Z,0
2017-09-23T03:29:08.106Z,0
2017-09-23T03:29:48.564Z,0
2017-09-23T03:30:29.001Z,0
2017-09-23T03:31:09.444Z,0
2017-09-23T03:31:49.894Z,0
2017-09-23T03:32:30.329Z,0
2017-09-23T03:33:10.777Z,0
2017-09-23T03:33:51.195Z,0
2017-09-23T03:34:31.684Z,0
2017-09-23T03:35:12.151Z,0
2017-09-23T03:35:52.596Z,0
2017-09-23T03:36:33.048Z,0
2017-09-23T03:37:13.499Z,0
2017-09-23T03:37:53.996Z,0
2017-09-23T03:38:34.438Z,0
2017-09-23T03:39:14.891Z,0
2017-09-23T03:39:55.344Z,0
2017-09-23T03:40:36.668Z,0
2017-09-23T03:41:17.226Z,0
2017-09-23T03:41:57.815Z,0
2017-09-23T03:42:38.206Z,0
2017-09-23T03:43:18.656Z,0
2017-09-23T03:43:59.138Z,0
2017-09-23T03:44:39.596Z,0
2017-09-23T03:45:20.045Z,0
2017-09-23T03:46:00.510Z,0
2017-09-23T03:46:40.934Z,0
2017-09-23T03:47:21.415Z,0
2017-09-23T03:48:01.852Z,0
2017-09-23T03:48:42.348Z,0
2017-09-23T03:49:22.749Z,0
2017-09-23T03:50:03.204Z,0
2017-09-23T03:50:43.718Z,0
2017-09-23T03:52:41.370Z,0
2017-09-23T03:53:21.844Z,0
2017-09-23T03:54:02.344Z,0
2017-09-23T03:54:42.838Z,0
2017-09-23T03:55:24.120Z,0
2017-09-23T03:56:04.611Z,0
2017-09-23T03:56:45.055Z,0
2017-09-23T03:57:25.534Z,0
2017-09-23T03:58:05.996Z,0
2017-09-23T03:58:47.132Z,0
2017-09-23T03:59:27.591Z,0
2017-09-23T04:00:08.015Z,0
2017-09-23T04:00:48.431Z,0
2017-09-23T04:01:28.868Z,0
2017-09-23T04:02:09.280Z,0
2017-09-23T04:02:49.736Z,0
2017-09-23T04:03:30.160Z,0
2017-09-23T04:04:10.641Z,0
2017-09-23T04:04:51.082Z,0
2017-09-23T04:05:31.518Z,0
2017-09-23T04:06:11.967Z,0
2017-09-23T04:06:52.452Z,0
2017-09-23T04:07:32.875Z,0
2017-09-23T04:08:13.319Z,0
2017-09-23T04:08:53.756Z,0
2017-09-23T04:09:34.205Z,0
2017-09-23T04:10:14.664Z,0
2017-09-23T04:10:55.101Z,0
2017-09-23T04:11:35.545Z,0
2017-09-23T04:12:15.994Z,0
2017-09-23T04:12:56.431Z,0
2017-09-23T04:13:36.868Z,0
2017-09-23T04:14:17.325Z,0
2017-09-23T04:14:57.758Z,0
2017-09-23T04:15:38.183Z,0
2017-09-23T04:16:18.624Z,0
2017-09-23T04:16:59.057Z,0
2017-09-23T04:17:39.482Z,0
2017-09-23T04:18:19.935Z,0
2017-09-23T04:19:00.392Z,0
2017-09-23T04:19:40.859Z,0
2017-09-23T04:20:21.335Z,0
2017-09-23T04:21:01.750Z,0
2017-09-23T04:21:42.211Z,0
2017-09-23T04:22:22.650Z,0
2017-09-23T04:23:03.070Z,0
2017-09-23T04:23:43.511Z,0
2017-09-23T04:24:23.955Z,0
2017-09-23T04:25:04.399Z,0
2017-09-23T04:25:44.856Z,0
2017-09-23T04:26:25.304Z,0
2017-09-23T04:27:05.715Z,0
2017-09-23T04:27:46.207Z,0
2017-09-23T04:28:27.346Z,0
2017-09-23T04:29:07.783Z,0
2017-09-23T04:29:48.229Z,0
2017-09-23T04:30:28.679Z,0
2017-09-23T04:31:09.119Z,0
2017-09-23T04:31:49.612Z,0
2017-09-23T04:32:30.165Z,0
2017-09-23T04:33:10.749Z,0
2017-09-23T04:33:51.108Z,0
2017-09-23T04:34:31.546Z,0
2017-09-23T04:35:11.981Z,0
2017-09-23T04:35:52.419Z,0
2017-09-23T04:36:32.911Z,0
2017-09-23T04:37:13.350Z,0
2017-09-23T04:39:26.069Z,0
2017-09-23T04:40:06.691Z,0
2017-09-23T04:40:47.186Z,0
2017-09-23T04:41:27.619Z,0
2017-09-23T04:42:08.060Z,0
2017-09-23T04:42:48.500Z,0
2017-09-23T04:43:28.944Z,0
2017-09-23T04:44:09.405Z,0
2017-09-23T04:44:49.921Z,0
2017-09-23T04:45:30.360Z,0
2017-09-23T04:46:10.781Z,4
2017-09-23T04:46:51.232Z,4
2017-09-23T04:47:32.325Z,4
2017-09-23T04:48:12.764Z,0
2017-09-23T04:48:53.181Z,4
2017-09-23T04:49:33.714Z,4
2017-09-23T04:50:14.149Z,8
2017-09-23T04:52:32.312Z,8
2017-09-23T04:53:12.776Z,8
2017-09-23T04:53:53.232Z,8
2017-09-23T04:56:05.915Z,12
2017-09-23T04:56:46.368Z,16
2017-09-23T04:57:26.822Z,20
2017-09-23T04:58:07.283Z,20
2017-09-23T04:58:47.731Z,20
2017-09-23T05:01:20.683Z,36
2017-09-23T05:02:01.189Z,40
2017-09-23T05:02:41.670Z,44
2017-09-23T05:03:22.129Z,48
2017-09-23T05:04:02.587Z,52
2017-09-23T05:04:43.034Z,60
2017-09-23T05:05:23.477Z,64
2017-09-23T05:06:03.928Z,72
2017-09-23T05:06:44.348Z,80
2017-09-23T05:07:24.807Z,84
2017-09-23T05:08:05.271Z,92
2017-09-23T05:08:45.712Z,100
2017-09-23T05:09:26.171Z,112
2017-09-23T05:10:06.628Z,120
2017-09-23T05:10:47.065Z,132
2017-09-23T05:11:27.500Z,144
2017-09-23T05:12:07.969Z,152
2017-09-23T05:12:48.419Z,164
2017-09-23T05:13:28.854Z,172
2017-09-23T05:14:09.344Z,184
2017-09-23T05:14:49.784Z,196
2017-09-23T05:15:30.278Z,208
2017-09-23T05:16:10.732Z,224
2017-09-23T05:16:51.166Z,240
2017-09-23T05:17:31.651Z,252
2017-09-23T05:18:12.085Z,268
2017-09-23T05:18:52.501Z,284
2017-09-23T05:19:32.934Z,300
2017-09-23T05:20:13.381Z,320
2017-09-23T05:20:53.821Z,336
2017-09-23T05:21:34.255Z,352
2017-09-23T05:22:14.719Z,372
2017-09-23T05:22:55.176Z,388
2017-09-23T05:23:35.658Z,408
2017-09-23T05:24:16.111Z,432
2017-09-23T05:24:56.553Z,452
2017-09-23T05:25:36.968Z,476
2017-09-23T05:26:17.413Z,496
2017-09-23T05:26:57.855Z,520
2017-09-23T05:27:38.333Z,544
2017-09-23T05:28:18.796Z,572
2017-09-23T05:28:59.309Z,600
2017-09-23T05:29:39.793Z,624
2017-09-23T05:30:20.274Z,656
2017-09-23T05:31:00.709Z,696
2017-09-23T05:31:41.172Z,732
2017-09-23T05:32:21.625Z,768
2017-09-23T05:33:02.074Z,804
2017-09-23T05:33:42.545Z,844
2017-09-23T05:34:23.782Z,872
2017-09-23T05:35:04.272Z,908
2017-09-23T05:35:44.723Z,944
2017-09-23T05:36:25.271Z,980
2017-09-23T05:37:05.893Z,1028
2017-09-23T05:37:46.428Z,1072
2017-09-23T05:38:26.895Z,1120
2017-09-23T05:39:07.367Z,1168
2017-09-23T05:39:47.875Z,1216
2017-09-23T05:40:28.344Z,1256
2017-09-23T05:41:09.630Z,1304
2017-09-23T05:41:50.196Z,1344
2017-09-23T05:42:30.684Z,1372
2017-09-23T05:43:11.240Z,1392
2017-09-23T05:43:51.732Z,1420
2017-09-23T05:44:32.191Z,1452
2017-09-23T05:45:12.652Z,1472
2017-09-23T05:45:53.204Z,1496
2017-09-23T05:46:33.746Z,1516
2017-09-23T05:47:14.309Z,1556
2017-09-23T05:47:54.890Z,1600
2017-09-23T05:48:35.453Z,1640
2017-09-23T05:49:15.996Z,1676
2017-09-23T05:49:56.638Z,1720
2017-09-23T05:50:37.104Z,1772
2017-09-23T05:51:17.524Z,1808
2017-09-23T05:51:57.954Z,1836
2017-09-23T05:52:38.400Z,1880
2017-09-23T05:53:18.820Z,1948
2017-09-23T05:53:59.265Z,2000
2017-09-23T05:54:39.700Z,2056
2017-09-23T05:55:20.137Z,2132
2017-09-23T05:57:53.146Z,2384
2017-09-23T05:58:33.616Z,2452
2017-09-23T05:59:14.100Z,2516
2017-09-23T05:59:54.527Z,2568
2017-09-23T06:00:34.964Z,2600
2017-09-23T06:01:15.398Z,2640
2017-09-23T06:01:55.822Z,2676
2017-09-23T06:02:36.273Z,2712
2017-09-23T06:03:16.724Z,2748
2017-09-23T06:03:57.162Z,2796
2017-09-23T06:04:37.650Z,2848
2017-09-23T06:05:18.100Z,2900
2017-09-23T06:05:58.555Z,2956
2017-09-23T06:06:39.009Z,2960
2017-09-23T06:07:19.476Z,2968
2017-09-23T06:07:59.938Z,2988
2017-09-23T06:08:40.353Z,3004
2017-09-23T06:09:21.430Z,3044
2017-09-23T06:10:01.857Z,3092
2017-09-23T06:10:42.330Z,3152
2017-09-23T06:11:22.774Z,3204
2017-09-23T06:12:03.202Z,3284
2017-09-23T06:12:43.647Z,3380
2017-09-23T06:13:24.072Z,3456
2017-09-23T06:14:04.575Z,3536
2017-09-23T06:14:44.960Z,3616
2017-09-23T06:17:12.884Z,3840
2017-09-23T06:17:53.347Z,3920
2017-09-23T06:18:33.779Z,3988
2017-09-23T06:19:14.220Z,4020
2017-09-23T06:19:54.657Z,4056
2017-09-23T06:20:35.085Z,4088
2017-09-23T06:21:15.554Z,4116
2017-09-23T06:21:56.002Z,4148
2017-09-23T06:22:36.505Z,4208
2017-09-23T06:23:16.968Z,4312
2017-09-23T06:23:57.428Z,4388
2017-09-23T06:24:37.869Z,4432
2017-09-23T06:25:18.331Z,4512
2017-09-23T06:25:58.746Z,4616
2017-09-23T06:26:39.171Z,4716
2017-09-23T06:27:19.595Z,4784
2017-09-23T06:28:00.010Z,4812
2017-09-23T06:28:40.455Z,4848
2017-09-23T06:29:20.881Z,4888
2017-09-23T06:30:01.471Z,4972
2017-09-23T06:30:41.849Z,5048
2017-09-23T06:31:22.324Z,5084
2017-09-23T06:32:02.770Z,5148
2017-09-23T06:32:43.324Z,5256
2017-09-23T06:33:23.788Z,5344
2017-09-23T06:34:04.237Z,5408
2017-09-23T06:34:44.697Z,5460
2017-09-23T06:35:25.190Z,5528
2017-09-23T06:36:05.615Z,5564
2017-09-23T06:36:46.059Z,5608
2017-09-23T06:37:26.527Z,5664
2017-09-23T06:38:07.000Z,5748
2017-09-23T06:38:47.447Z,5804
2017-09-23T06:39:27.892Z,5852
2017-09-23T06:40:08.336Z,5920
2017-09-23T06:40:48.773Z,6028
2017-09-23T06:41:29.205Z,6112
2017-09-23T06:42:09.677Z,6172
2017-09-23T06:42:50.155Z,6256
2017-09-23T06:43:30.581Z,6348
2017-09-23T06:44:11.046Z,6496
2017-09-23T06:44:51.488Z,6664
2017-09-23T06:45:31.907Z,6792
2017-09-23T06:46:12.365Z,6936
2017-09-23T06:46:52.812Z,7104
2017-09-23T06:47:33.274Z,7264
2017-09-23T06:48:13.683Z,7360
2017-09-23T06:50:11.326Z,7744
2017-09-23T06:50:51.843Z,9404
2017-09-23T06:51:32.318Z,9160
2017-09-23T06:52:12.786Z,9548
2017-09-23T06:52:53.265Z,8836
2017-09-23T06:53:33.713Z,7504
2017-09-23T06:54:14.152Z,7356
2017-09-23T06:54:54.598Z,7600
2017-09-23T06:55:35.031Z,7168
2017-09-23T06:56:15.465Z,7204
2017-09-23T06:56:55.895Z,7304
2017-09-23T06:57:36.356Z,7568
2017-09-23T06:58:16.816Z,8252
2017-09-23T06:58:57.258Z,8904
2017-09-23T06:59:37.686Z,11188
2017-09-23T07:00:18.147Z,10196
2017-09-23T07:00:58.578Z,11104
2017-09-23T07:01:39.027Z,11380
2017-09-23T07:02:19.488Z,9776
2017-09-23T07:02:59.898Z,10480
2017-09-23T07:03:40.347Z,9800
2017-09-23T07:04:20.823Z,9256
2017-09-23T07:05:01.280Z,10912
2017-09-23T07:05:41.724Z,12596
2017-09-23T07:06:22.189Z,10740
2017-09-23T07:07:02.647Z,8332
2017-09-23T07:07:43.095Z,8452
2017-09-23T07:08:23.529Z,8120
2017-09-23T07:09:03.996Z,7808
2017-09-23T07:09:44.500Z,7812
2017-09-23T07:10:24.986Z,7864
2017-09-23T07:11:05.445Z,7936
2017-09-23T07:11:45.874Z,8012
2017-09-23T07:12:26.312Z,8116
2017-09-23T07:13:06.763Z,8260
2017-09-23T07:13:47.825Z,8364
2017-09-23T07:14:28.266Z,8692
2017-09-23T07:15:08.713Z,10552
2017-09-23T07:15:49.151Z,12536
2017-09-23T07:16:29.580Z,15360
2017-09-23T07:17:10.039Z,14856
2017-09-23T07:17:50.482Z,12936
2017-09-23T07:18:30.950Z,11328
2017-09-23T07:19:11.389Z,10384
2017-09-23T07:19:51.852Z,8112
2017-09-23T07:20:32.305Z,8396
2017-09-23T07:21:12.732Z,10400
2017-09-23T07:21:53.182Z,9744
2017-09-23T07:22:33.641Z,8532
2017-09-23T07:23:14.080Z,10432
2017-09-23T07:23:54.527Z,11320
2017-09-23T07:24:34.981Z,9164
2017-09-23T07:25:15.433Z,8552
2017-09-23T07:25:55.852Z,10780
2017-09-23T07:27:53.513Z,10376
2017-09-23T07:28:33.957Z,8060
2017-09-23T07:29:14.438Z,7564
2017-09-23T07:29:54.931Z,7572
2017-09-23T07:30:35.386Z,7764
2017-09-23T07:31:15.889Z,8112
2017-09-23T07:31:56.292Z,8492
2017-09-23T07:32:36.778Z,11624
2017-09-23T07:33:17.182Z,13160
2017-09-23T07:33:57.626Z,18368
2017-09-23T07:34:38.056Z,18336
2017-09-23T07:35:18.491Z,18304
2017-09-23T07:35:58.945Z,18016
2017-09-23T07:36:39.396Z,17120
2017-09-23T07:37:19.865Z,15296
2017-09-23T07:38:00.290Z,13248
2017-09-23T07:38:40.759Z,11388
2017-09-23T07:39:21.186Z,10056
2017-09-23T07:40:01.629Z,9316
2017-09-23T07:40:42.059Z,8804
2017-09-23T07:41:22.522Z,8792
2017-09-23T07:42:02.979Z,9808
2017-09-23T07:42:43.445Z,11532
2017-09-23T07:43:23.894Z,13344
2017-09-23T07:44:04.332Z,14404
2017-09-23T07:44:44.762Z,15560
2017-09-23T07:45:25.226Z,16288
2017-09-23T07:46:05.738Z,14624
2017-09-23T07:46:46.178Z,15440
2017-09-23T07:47:26.599Z,16864
2017-09-23T07:48:07.043Z,16704
2017-09-23T07:48:47.487Z,16512
2017-09-23T07:49:27.965Z,16416
2017-09-23T07:50:08.425Z,16224
2017-09-23T07:50:48.867Z,16128
2017-09-23T07:51:29.287Z,16128
2017-09-23T07:52:09.733Z,16512
2017-09-23T07:52:50.238Z,17056
2017-09-23T07:53:30.731Z,17504
2017-09-23T07:54:11.156Z,17536
2017-09-23T07:54:51.582Z,17312
2017-09-23T07:55:32.025Z,16992
2017-09-23T07:56:12.492Z,16608
2017-09-23T07:56:52.974Z,16416
2017-09-23T07:57:33.409Z,16148
2017-09-23T07:58:13.853Z,16092
2017-09-23T07:58:54.336Z,16080
2017-09-23T07:59:34.767Z,16088
2017-09-23T08:00:15.263Z,16272
2017-09-23T08:00:55.698Z,16608
2017-09-23T08:01:36.154Z,16640
2017-09-23T08:02:16.600Z,16704
2017-09-23T08:04:44.543Z,18464
2017-09-23T08:05:25.020Z,24576
2017-09-23T08:06:05.510Z,35040
2017-09-23T08:06:45.997Z,47424
2017-09-23T08:07:26.447Z,55456
2017-09-23T08:08:06.853Z,56480
2017-09-23T08:08:47.298Z,49760
2017-09-23T08:09:27.738Z,42848
2017-09-23T08:10:08.190Z,31616
2017-09-23T08:10:48.709Z,23584
2017-09-23T08:12:46.337Z,21824
2017-09-23T08:13:26.812Z,20992
2017-09-23T08:14:07.309Z,20896
2017-09-23T08:16:35.235Z,20416
2017-09-23T08:17:15.759Z,19936
2017-09-23T08:17:56.178Z,19200
2017-09-23T08:18:36.648Z,18144
2017-09-23T08:19:17.096Z,17312
2017-09-23T08:19:57.563Z,16804
2017-09-23T08:20:37.966Z,16708
2017-09-23T08:21:18.409Z,16776
2017-09-23T08:21:58.895Z,16940
2017-09-23T08:22:39.375Z,17504
2017-09-23T08:23:20.447Z,18048
2017-09-23T08:25:53.494Z,30624
2017-09-23T08:26:33.945Z,43456
2017-09-23T08:27:14.556Z,54880
2017-09-23T08:27:55.041Z,57888
2017-09-23T08:28:35.508Z,58112
2017-09-23T08:29:15.956Z,58336
2017-09-23T08:29:56.417Z,59360
2017-09-23T08:30:36.900Z,58240
2017-09-23T08:31:17.347Z,57152
2017-09-23T08:31:57.844Z,57376
2017-09-23T08:32:38.308Z,59520
2017-09-23T08:33:18.757Z,60768
2017-09-23T08:33:59.221Z,60288
2017-09-23T08:34:39.664Z,57664
2017-09-23T08:35:20.100Z,57728
2017-09-23T08:36:00.549Z,59552
2017-09-23T08:36:41.012Z,59520
2017-09-23T08:37:21.498Z,60736
2017-09-23T08:38:01.928Z,60768
2017-09-23T08:40:30.151Z,63104
2017-09-23T08:41:10.615Z,63264
2017-09-23T08:41:51.094Z,64416
2017-09-23T08:42:31.583Z,64288
2017-09-23T08:43:12.026Z,63616
2017-09-23T08:43:52.454Z,63424
2017-09-23T08:44:32.891Z,63360
2017-09-23T08:45:13.367Z,64480
2017-09-23T08:45:53.806Z,65504
2017-09-23T08:46:34.279Z,65920
2017-09-23T08:47:14.735Z,66176
2017-09-23T08:47:55.189Z,63840
2017-09-23T08:48:35.649Z,63744
2017-09-23T08:49:16.827Z,65088
2017-09-23T08:49:57.265Z,64512
2017-09-23T08:50:38.634Z,66080
2017-09-23T08:51:19.088Z,65696
2017-09-23T08:51:59.536Z,64928
2017-09-23T08:52:40.827Z,64096
2017-09-23T08:55:13.955Z,65472
2017-09-23T08:55:54.450Z,67424
2017-09-23T08:56:34.905Z,66336
2017-09-23T08:58:52.703Z,62688
2017-09-23T08:59:33.168Z,64544
2017-09-23T09:00:13.674Z,66816
2017-09-23T09:00:54.184Z,67584
2017-09-23T09:01:34.581Z,66752
2017-09-23T09:02:15.028Z,65056
2017-09-23T09:02:55.451Z,64800
2017-09-23T09:03:35.948Z,64576
2017-09-23T09:04:16.413Z,65376
2017-09-23T09:04:56.821Z,64576
2017-09-23T09:05:37.269Z,58208
2017-09-23T09:06:17.707Z,42080
2017-09-23T09:06:58.234Z,25568
2017-09-23T09:07:38.643Z,16568
2017-09-23T09:08:19.092Z,15704
2017-09-23T09:08:59.552Z,15160
2017-09-23T09:09:40.081Z,14780
2017-09-23T09:10:20.549Z,14540
2017-09-23T09:11:01.009Z,14392
2017-09-23T09:13:13.697Z,15376
2017-09-23T09:13:54.187Z,27584
2017-09-23T09:14:35.419Z,47072
2017-09-23T09:15:15.877Z,65440
2017-09-23T09:15:56.335Z,68544
2017-09-23T09:16:36.752Z,68448
2017-09-23T09:17:17.770Z,68256
2017-09-23T09:17:58.218Z,68768
2017-09-23T09:18:38.738Z,71936
2017-09-23T09:19:19.202Z,73792
2017-09-23T09:19:59.651Z,73408
2017-09-23T09:20:40.102Z,73696
2017-09-23T09:21:20.531Z,75360
2017-09-23T09:22:00.988Z,71552
2017-09-23T09:22:41.432Z,52480
2017-09-23T09:23:21.840Z,32704
2017-09-23T09:24:02.401Z,23488
2017-09-23T09:24:42.884Z,23936
2017-09-23T09:25:23.345Z,23744
2017-09-23T09:26:03.783Z,24640
2017-09-23T09:26:44.219Z,25504
2017-09-23T09:27:24.653Z,25472
2017-09-23T09:28:05.105Z,25376
2017-09-23T09:28:45.546Z,25472
2017-09-23T09:29:25.996Z,26464
2017-09-23T09:30:07.415Z,27104
2017-09-23T09:30:47.877Z,27552
2017-09-23T09:31:28.369Z,27872
2017-09-23T09:32:08.820Z,27680
2017-09-23T09:32:49.267Z,27136
2017-09-23T09:33:29.743Z,26816
2017-09-23T09:34:10.257Z,26656
2017-09-23T09:34:50.713Z,26496
2017-09-23T09:35:31.157Z,26688
2017-09-23T09:36:11.623Z,26432
2017-09-23T09:38:24.312Z,26400
2017-09-23T09:39:04.798Z,25696
2017-09-23T09:39:45.328Z,24544
2017-09-23T09:40:25.833Z,23168
2017-09-23T09:41:06.254Z,22080
2017-09-23T09:41:46.692Z,21472
2017-09-23T09:42:27.162Z,21152
2017-09-23T09:43:07.613Z,21056
2017-09-23T09:43:48.072Z,21152
2017-09-23T09:44:28.537Z,21600
2017-09-23T09:45:08.975Z,24320
2017-09-23T09:45:49.441Z,41632
2017-09-23T09:46:29.901Z,62336
2017-09-23T09:47:10.385Z,71232
2017-09-23T09:47:50.821Z,70016
2017-09-23T09:48:31.347Z,69728
2017-09-23T09:49:11.779Z,68992
2017-09-23T09:49:52.236Z,70432
2017-09-23T09:50:32.703Z,73216
2017-09-23T09:51:13.167Z,73472
2017-09-23T09:51:53.587Z,71872
2017-09-23T09:52:34.047Z,70784
2017-09-23T09:54:46.744Z,75200
2017-09-23T09:55:27.238Z,75872
2017-09-23T09:56:07.731Z,76768
2017-09-23T09:58:35.700Z,78112
2017-09-23T09:59:16.155Z,79328
2017-09-23T09:59:56.641Z,78816
2017-09-23T10:00:37.109Z,78688
2017-09-23T10:01:17.580Z,78688
2017-09-23T10:01:58.015Z,77376
2017-09-23T10:02:38.487Z,75232
2017-09-23T10:03:18.993Z,74944
2017-09-23T10:03:59.421Z,73216
2017-09-23T10:04:39.900Z,73216
2017-09-23T10:05:20.396Z,72992
2017-09-23T10:06:00.884Z,70432
2017-09-23T10:06:41.316Z,68896
2017-09-23T10:07:21.753Z,68480
2017-09-23T10:08:02.190Z,70176
2017-09-23T10:08:42.690Z,69376
2017-09-23T10:09:23.131Z,68256
2017-09-23T10:10:03.684Z,71616
2017-09-23T10:10:44.144Z,72768
2017-09-23T10:11:24.611Z,73344
2017-09-23T10:12:05.031Z,73984
2017-09-23T10:12:45.523Z,75616
2017-09-23T10:13:26.097Z,76896
2017-09-23T10:14:06.472Z,78304
2017-09-23T10:14:46.931Z,80192
2017-09-23T10:15:27.385Z,81824
2017-09-23T10:16:07.831Z,81536